sensor_id;sensor_type;location;lat;lon;timestamp;P1;durP1;ratioP1;P2;durP2;ratioP2
65855;SDS011;52631;42.208;24.656;2023-06-10T00:00:08;7.35;;;5.28;;
65855;SDS011;52631;42.208;24.656;2023-06-10T00:02:37;7.93;;;5.22;;
65855;SDS011;52631;42.208;24.656;2023-06-10T00:05:03;9.30;;;5.07;;
65855;SDS011;52631;42.208;24.656;2023-06-10T00:07:28;7.70;;;5.03;;
65855;SDS011;52631;42.208;24.656;2023-06-10T00:09:54;8.73;;;5.28;;
65855;SDS011;52631;42.208;24.656;2023-06-10T00:12:20;6.88;;;5.05;;
65855;SDS011;52631;42.208;24.656;2023-06-10T00:14:45;7.70;;;4.93;;
65855;SDS011;52631;42.208;24.656;2023-06-10T00:17:11;7.85;;;5.00;;
65855;SDS011;52631;42.208;24.656;2023-06-10T00:19:37;7.93;;;4.90;;
65855;SDS011;52631;42.208;24.656;2023-06-10T00:22:06;6.80;;;5.10;;
65855;SDS011;52631;42.208;24.656;2023-06-10T00:24:32;8.25;;;5.20;;
65855;SDS011;52631;42.208;24.656;2023-06-10T00:26:57;6.95;;;4.78;;
65855;SDS011;52631;42.208;24.656;2023-06-10T00:29:23;7.93;;;4.90;;
65855;SDS011;52631;42.208;24.656;2023-06-10T00:31:48;7.15;;;4.97;;
65855;SDS011;52631;42.208;24.656;2023-06-10T00:34:14;7.10;;;4.85;;
65855;SDS011;52631;42.208;24.656;2023-06-10T00:36:39;6.20;;;4.63;;
65855;SDS011;52631;42.208;24.656;2023-06-10T00:39:05;10.75;;;5.38;;
65855;SDS011;52631;42.208;24.656;2023-06-10T00:41:31;7.22;;;4.88;;
65855;SDS011;52631;42.208;24.656;2023-06-10T00:43:58;7.45;;;5.00;;
65855;SDS011;52631;42.208;24.656;2023-06-10T00:46:24;7.28;;;5.40;;
65855;SDS011;52631;42.208;24.656;2023-06-10T00:48:50;7.93;;;4.57;;
65855;SDS011;52631;42.208;24.656;2023-06-10T00:51:16;9.65;;;5.22;;
65855;SDS011;52631;42.208;24.656;2023-06-10T00:53:42;7.38;;;4.90;;
65855;SDS011;52631;42.208;24.656;2023-06-10T00:56:08;7.80;;;5.25;;
65855;SDS011;52631;42.208;24.656;2023-06-10T00:58:34;10.27;;;5.22;;
65855;SDS011;52631;42.208;24.656;2023-06-10T01:01:00;7.93;;;5.00;;
65855;SDS011;52631;42.208;24.656;2023-06-10T01:03:26;7.45;;;5.30;;
65855;SDS011;52631;42.208;24.656;2023-06-10T01:06:00;7.38;;;5.10;;
65855;SDS011;52631;42.208;24.656;2023-06-10T01:11:13;8.00;;;5.75;;
65855;SDS011;52631;42.208;24.656;2023-06-10T01:13:43;7.50;;;5.30;;
65855;SDS011;52631;42.208;24.656;2023-06-10T01:16:09;8.40;;;5.18;;
65855;SDS011;52631;42.208;24.656;2023-06-10T01:18:35;9.30;;;5.57;;
65855;SDS011;52631;42.208;24.656;2023-06-10T01:21:01;9.30;;;5.47;;
65855;SDS011;52631;42.208;24.656;2023-06-10T01:23:27;9.27;;;5.75;;
65855;SDS011;52631;42.208;24.656;2023-06-10T01:25:58;7.28;;;5.40;;
65855;SDS011;52631;42.208;24.656;2023-06-10T01:28:27;8.32;;;5.43;;
65855;SDS011;52631;42.208;24.656;2023-06-10T01:31:13;9.35;;;5.82;;
65855;SDS011;52631;42.208;24.656;2023-06-10T01:33:47;7.38;;;5.53;;
65855;SDS011;52631;42.208;24.656;2023-06-10T01:36:13;7.95;;;5.85;;
65855;SDS011;52631;42.208;24.656;2023-06-10T01:38:44;10.70;;;5.45;;
65855;SDS011;52631;42.208;24.656;2023-06-10T01:41:15;9.45;;;5.38;;
65855;SDS011;52631;42.208;24.656;2023-06-10T01:43:45;7.25;;;5.50;;
65855;SDS011;52631;42.208;24.656;2023-06-10T01:46:10;8.48;;;5.75;;
65855;SDS011;52631;42.208;24.656;2023-06-10T01:48:37;8.82;;;5.53;;
65855;SDS011;52631;42.208;24.656;2023-06-10T01:51:03;7.75;;;5.60;;
65855;SDS011;52631;42.208;24.656;2023-06-10T01:53:29;7.63;;;5.43;;
65855;SDS011;52631;42.208;24.656;2023-06-10T01:55:54;8.07;;;5.57;;
65855;SDS011;52631;42.208;24.656;2023-06-10T01:58:20;8.20;;;5.82;;
65855;SDS011;52631;42.208;24.656;2023-06-10T02:00:45;8.95;;;5.85;;
65855;SDS011;52631;42.208;24.656;2023-06-10T02:03:11;9.05;;;5.65;;
65855;SDS011;52631;42.208;24.656;2023-06-10T02:05:37;6.80;;;5.47;;
65855;SDS011;52631;42.208;24.656;2023-06-10T02:08:02;8.25;;;5.97;;
65855;SDS011;52631;42.208;24.656;2023-06-10T02:10:28;8.80;;;5.85;;
65855;SDS011;52631;42.208;24.656;2023-06-10T02:12:54;8.05;;;5.25;;
65855;SDS011;52631;42.208;24.656;2023-06-10T02:15:20;12.02;;;6.70;;
65855;SDS011;52631;42.208;24.656;2023-06-10T02:17:45;9.65;;;5.80;;
65855;SDS011;52631;42.208;24.656;2023-06-10T02:20:11;10.35;;;6.65;;
65855;SDS011;52631;42.208;24.656;2023-06-10T02:22:37;12.02;;;6.93;;
65855;SDS011;52631;42.208;24.656;2023-06-10T02:25:03;11.68;;;7.18;;
65855;SDS011;52631;42.208;24.656;2023-06-10T02:27:29;12.63;;;7.43;;
65855;SDS011;52631;42.208;24.656;2023-06-10T02:29:55;12.18;;;7.63;;
65855;SDS011;52631;42.208;24.656;2023-06-10T02:32:21;8.55;;;6.15;;
65855;SDS011;52631;42.208;24.656;2023-06-10T02:34:47;9.13;;;6.47;;
65855;SDS011;52631;42.208;24.656;2023-06-10T02:37:14;9.43;;;5.80;;
65855;SDS011;52631;42.208;24.656;2023-06-10T02:39:39;11.25;;;6.18;;
65855;SDS011;52631;42.208;24.656;2023-06-10T02:42:05;10.68;;;6.55;;
65855;SDS011;52631;42.208;24.656;2023-06-10T02:44:31;13.55;;;6.97;;
65855;SDS011;52631;42.208;24.656;2023-06-10T02:46:57;10.90;;;6.38;;
65855;SDS011;52631;42.208;24.656;2023-06-10T02:49:22;9.32;;;6.40;;
65855;SDS011;52631;42.208;24.656;2023-06-10T02:51:49;12.07;;;6.78;;
65855;SDS011;52631;42.208;24.656;2023-06-10T02:54:18;10.15;;;6.53;;
65855;SDS011;52631;42.208;24.656;2023-06-10T02:56:47;10.07;;;5.88;;
65855;SDS011;52631;42.208;24.656;2023-06-10T02:59:13;9.07;;;5.78;;
65855;SDS011;52631;42.208;24.656;2023-06-10T03:01:39;12.70;;;6.10;;
65855;SDS011;52631;42.208;24.656;2023-06-10T03:04:05;11.48;;;6.10;;
65855;SDS011;52631;42.208;24.656;2023-06-10T03:06:31;8.57;;;5.32;;
65855;SDS011;52631;42.208;24.656;2023-06-10T03:08:59;7.97;;;6.03;;
65855;SDS011;52631;42.208;24.656;2023-06-10T03:11:25;9.15;;;5.95;;
65855;SDS011;52631;42.208;24.656;2023-06-10T03:13:50;16.20;;;6.70;;
65855;SDS011;52631;42.208;24.656;2023-06-10T03:16:17;7.85;;;5.47;;
65855;SDS011;52631;42.208;24.656;2023-06-10T03:18:43;11.15;;;6.25;;
65855;SDS011;52631;42.208;24.656;2023-06-10T03:21:08;9.38;;;6.00;;
65855;SDS011;52631;42.208;24.656;2023-06-10T03:23:34;8.77;;;5.75;;
65855;SDS011;52631;42.208;24.656;2023-06-10T03:26:00;10.20;;;5.97;;
65855;SDS011;52631;42.208;24.656;2023-06-10T03:28:25;8.38;;;5.80;;
65855;SDS011;52631;42.208;24.656;2023-06-10T03:30:51;8.70;;;5.80;;
65855;SDS011;52631;42.208;24.656;2023-06-10T03:33:16;12.88;;;6.13;;
65855;SDS011;52631;42.208;24.656;2023-06-10T03:35:42;10.50;;;6.85;;
65855;SDS011;52631;42.208;24.656;2023-06-10T03:38:07;10.25;;;6.22;;
65855;SDS011;52631;42.208;24.656;2023-06-10T03:40:33;12.63;;;6.47;;
65855;SDS011;52631;42.208;24.656;2023-06-10T03:42:58;10.70;;;6.72;;
65855;SDS011;52631;42.208;24.656;2023-06-10T03:45:25;11.50;;;7.15;;
65855;SDS011;52631;42.208;24.656;2023-06-10T03:47:53;17.17;;;8.55;;
65855;SDS011;52631;42.208;24.656;2023-06-10T03:50:18;10.38;;;7.60;;
65855;SDS011;52631;42.208;24.656;2023-06-10T03:52:44;11.65;;;7.03;;
65855;SDS011;52631;42.208;24.656;2023-06-10T03:55:10;10.20;;;6.28;;
65855;SDS011;52631;42.208;24.656;2023-06-10T03:57:38;9.85;;;6.35;;
65855;SDS011;52631;42.208;24.656;2023-06-10T04:00:04;8.32;;;6.43;;
65855;SDS011;52631;42.208;24.656;2023-06-10T04:02:37;15.38;;;6.35;;
65855;SDS011;52631;42.208;24.656;2023-06-10T04:05:02;8.43;;;6.13;;
65855;SDS011;52631;42.208;24.656;2023-06-10T04:07:29;12.27;;;6.20;;
65855;SDS011;52631;42.208;24.656;2023-06-10T04:09:55;12.38;;;6.20;;
65855;SDS011;52631;42.208;24.656;2023-06-10T04:12:21;8.70;;;6.43;;
65855;SDS011;52631;42.208;24.656;2023-06-10T04:14:47;9.57;;;6.22;;
65855;SDS011;52631;42.208;24.656;2023-06-10T04:17:12;10.15;;;5.60;;
65855;SDS011;52631;42.208;24.656;2023-06-10T04:19:37;7.63;;;5.47;;
65855;SDS011;52631;42.208;24.656;2023-06-10T04:22:03;9.32;;;6.03;;
65855;SDS011;52631;42.208;24.656;2023-06-10T04:24:30;9.20;;;6.05;;
65855;SDS011;52631;42.208;24.656;2023-06-10T04:26:55;10.90;;;6.22;;
65855;SDS011;52631;42.208;24.656;2023-06-10T04:29:21;14.25;;;6.63;;
65855;SDS011;52631;42.208;24.656;2023-06-10T04:31:47;10.25;;;7.00;;
65855;SDS011;52631;42.208;24.656;2023-06-10T04:34:12;10.73;;;6.30;;
65855;SDS011;52631;42.208;24.656;2023-06-10T04:36:38;11.75;;;6.35;;
65855;SDS011;52631;42.208;24.656;2023-06-10T04:39:03;9.80;;;6.30;;
65855;SDS011;52631;42.208;24.656;2023-06-10T04:41:30;9.23;;;6.78;;
65855;SDS011;52631;42.208;24.656;2023-06-10T04:43:56;10.52;;;6.47;;
65855;SDS011;52631;42.208;24.656;2023-06-10T04:46:23;10.35;;;6.57;;
65855;SDS011;52631;42.208;24.656;2023-06-10T04:48:49;10.30;;;6.18;;
65855;SDS011;52631;42.208;24.656;2023-06-10T04:51:15;8.85;;;6.55;;
65855;SDS011;52631;42.208;24.656;2023-06-10T04:53:40;10.40;;;6.35;;
65855;SDS011;52631;42.208;24.656;2023-06-10T04:56:07;9.63;;;6.15;;
65855;SDS011;52631;42.208;24.656;2023-06-10T04:58:32;10.07;;;6.18;;
65855;SDS011;52631;42.208;24.656;2023-06-10T05:00:58;10.70;;;6.25;;
65855;SDS011;52631;42.208;24.656;2023-06-10T05:03:24;8.82;;;5.60;;
65855;SDS011;52631;42.208;24.656;2023-06-10T05:05:50;9.20;;;5.78;;
65855;SDS011;52631;42.208;24.656;2023-06-10T05:08:15;8.82;;;5.72;;
65855;SDS011;52631;42.208;24.656;2023-06-10T05:10:41;8.77;;;5.70;;
65855;SDS011;52631;42.208;24.656;2023-06-10T05:13:06;9.77;;;6.15;;
65855;SDS011;52631;42.208;24.656;2023-06-10T05:15:32;11.73;;;6.60;;
65855;SDS011;52631;42.208;24.656;2023-06-10T05:17:57;11.07;;;7.00;;
65855;SDS011;52631;42.208;24.656;2023-06-10T05:20:23;13.40;;;7.32;;
65855;SDS011;52631;42.208;24.656;2023-06-10T05:22:50;11.52;;;7.43;;
65855;SDS011;52631;42.208;24.656;2023-06-10T05:25:15;13.02;;;8.52;;
65855;SDS011;52631;42.208;24.656;2023-06-10T05:27:41;12.63;;;8.82;;
65855;SDS011;52631;42.208;24.656;2023-06-10T05:30:08;11.43;;;8.02;;
65855;SDS011;52631;42.208;24.656;2023-06-10T05:32:34;14.75;;;7.75;;
65855;SDS011;52631;42.208;24.656;2023-06-10T05:35:00;11.98;;;7.50;;
65855;SDS011;52631;42.208;24.656;2023-06-10T05:37:26;11.57;;;8.18;;
65855;SDS011;52631;42.208;24.656;2023-06-10T05:39:51;10.68;;;8.05;;
65855;SDS011;52631;42.208;24.656;2023-06-10T05:42:17;10.30;;;7.70;;
65855;SDS011;52631;42.208;24.656;2023-06-10T05:44:42;11.60;;;7.90;;
65855;SDS011;52631;42.208;24.656;2023-06-10T05:47:08;10.55;;;7.90;;
65855;SDS011;52631;42.208;24.656;2023-06-10T05:49:34;15.93;;;8.75;;
65855;SDS011;52631;42.208;24.656;2023-06-10T05:51:59;13.63;;;8.63;;
65855;SDS011;52631;42.208;24.656;2023-06-10T05:54:25;11.63;;;7.70;;
65855;SDS011;52631;42.208;24.656;2023-06-10T05:56:51;12.02;;;7.95;;
65855;SDS011;52631;42.208;24.656;2023-06-10T05:59:16;9.18;;;7.20;;
65855;SDS011;52631;42.208;24.656;2023-06-10T06:01:42;11.98;;;7.45;;
65855;SDS011;52631;42.208;24.656;2023-06-10T06:04:07;12.45;;;6.88;;
65855;SDS011;52631;42.208;24.656;2023-06-10T06:06:33;8.73;;;6.40;;
65855;SDS011;52631;42.208;24.656;2023-06-10T06:09:00;8.93;;;6.63;;
65855;SDS011;52631;42.208;24.656;2023-06-10T06:11:25;10.88;;;6.18;;
65855;SDS011;52631;42.208;24.656;2023-06-10T06:13:51;8.10;;;5.72;;
65855;SDS011;52631;42.208;24.656;2023-06-10T06:16:17;11.23;;;6.13;;
65855;SDS011;52631;42.208;24.656;2023-06-10T06:18:43;8.40;;;5.47;;
65855;SDS011;52631;42.208;24.656;2023-06-10T06:21:09;10.23;;;5.88;;
65855;SDS011;52631;42.208;24.656;2023-06-10T06:23:34;6.63;;;5.15;;
65855;SDS011;52631;42.208;24.656;2023-06-10T06:26:00;10.68;;;5.60;;
65855;SDS011;52631;42.208;24.656;2023-06-10T06:28:25;8.20;;;5.30;;
65855;SDS011;52631;42.208;24.656;2023-06-10T06:30:55;7.95;;;5.00;;
65855;SDS011;52631;42.208;24.656;2023-06-10T06:33:21;6.25;;;5.15;;
65855;SDS011;52631;42.208;24.656;2023-06-10T06:35:46;7.63;;;5.15;;
65855;SDS011;52631;42.208;24.656;2023-06-10T06:38:12;10.18;;;4.95;;
65855;SDS011;52631;42.208;24.656;2023-06-10T06:40:37;11.68;;;5.47;;
65855;SDS011;52631;42.208;24.656;2023-06-10T06:43:02;8.55;;;5.05;;
65855;SDS011;52631;42.208;24.656;2023-06-10T06:45:28;6.65;;;4.82;;
65855;SDS011;52631;42.208;24.656;2023-06-10T06:47:54;9.20;;;4.93;;
65855;SDS011;52631;42.208;24.656;2023-06-10T06:50:20;8.55;;;4.85;;
65855;SDS011;52631;42.208;24.656;2023-06-10T06:52:46;6.38;;;4.55;;
65855;SDS011;52631;42.208;24.656;2023-06-10T06:55:11;6.60;;;4.25;;
65855;SDS011;52631;42.208;24.656;2023-06-10T06:57:37;7.97;;;4.90;;
65855;SDS011;52631;42.208;24.656;2023-06-10T07:00:03;7.38;;;5.22;;
65855;SDS011;52631;42.208;24.656;2023-06-10T07:02:29;7.63;;;4.90;;
65855;SDS011;52631;42.208;24.656;2023-06-10T07:04:57;7.65;;;5.40;;
65855;SDS011;52631;42.208;24.656;2023-06-10T07:07:23;9.25;;;5.20;;
65855;SDS011;52631;42.208;24.656;2023-06-10T07:09:49;8.63;;;5.60;;
65855;SDS011;52631;42.208;24.656;2023-06-10T07:12:15;8.93;;;5.55;;
65855;SDS011;52631;42.208;24.656;2023-06-10T07:14:40;7.22;;;4.93;;
65855;SDS011;52631;42.208;24.656;2023-06-10T07:17:05;7.32;;;5.63;;
65855;SDS011;52631;42.208;24.656;2023-06-10T07:19:31;8.23;;;5.43;;
65855;SDS011;52631;42.208;24.656;2023-06-10T07:21:56;8.20;;;5.53;;
65855;SDS011;52631;42.208;24.656;2023-06-10T07:24:22;9.80;;;6.30;;
65855;SDS011;52631;42.208;24.656;2023-06-10T07:26:47;10.52;;;5.18;;
65855;SDS011;52631;42.208;24.656;2023-06-10T07:29:13;7.78;;;5.40;;
65855;SDS011;52631;42.208;24.656;2023-06-10T07:31:38;7.05;;;5.00;;
65855;SDS011;52631;42.208;24.656;2023-06-10T07:34:03;7.05;;;4.93;;
65855;SDS011;52631;42.208;24.656;2023-06-10T07:36:29;7.45;;;4.45;;
65855;SDS011;52631;42.208;24.656;2023-06-10T07:38:54;7.15;;;3.80;;
65855;SDS011;52631;42.208;24.656;2023-06-10T07:41:20;7.18;;;4.28;;
65855;SDS011;52631;42.208;24.656;2023-06-10T07:43:47;4.85;;;3.90;;
65855;SDS011;52631;42.208;24.656;2023-06-10T07:46:13;6.57;;;4.75;;
65855;SDS011;52631;42.208;24.656;2023-06-10T07:48:38;7.47;;;3.90;;
65855;SDS011;52631;42.208;24.656;2023-06-10T07:51:04;7.30;;;4.47;;
65855;SDS011;52631;42.208;24.656;2023-06-10T07:53:29;9.35;;;4.57;;
65855;SDS011;52631;42.208;24.656;2023-06-10T07:55:54;8.10;;;4.13;;
65855;SDS011;52631;42.208;24.656;2023-06-10T07:58:20;7.78;;;4.80;;
65855;SDS011;52631;42.208;24.656;2023-06-10T08:00:47;6.70;;;4.70;;
65855;SDS011;52631;42.208;24.656;2023-06-10T08:03:12;7.60;;;4.53;;
65855;SDS011;52631;42.208;24.656;2023-06-10T08:05:39;9.30;;;4.45;;
65855;SDS011;52631;42.208;24.656;2023-06-10T08:08:04;7.18;;;5.00;;
65855;SDS011;52631;42.208;24.656;2023-06-10T08:10:30;9.35;;;4.78;;
65855;SDS011;52631;42.208;24.656;2023-06-10T08:12:55;6.60;;;4.35;;
65855;SDS011;52631;42.208;24.656;2023-06-10T08:15:21;7.60;;;3.75;;
65855;SDS011;52631;42.208;24.656;2023-06-10T08:17:46;5.63;;;3.90;;
65855;SDS011;52631;42.208;24.656;2023-06-10T08:20:12;6.47;;;4.20;;
65855;SDS011;52631;42.208;24.656;2023-06-10T08:22:38;5.80;;;4.22;;
65855;SDS011;52631;42.208;24.656;2023-06-10T08:25:03;8.52;;;4.30;;
65855;SDS011;52631;42.208;24.656;2023-06-10T08:27:29;24.20;;;5.22;;
65855;SDS011;52631;42.208;24.656;2023-06-10T08:29:54;9.52;;;4.53;;
65855;SDS011;52631;42.208;24.656;2023-06-10T08:32:20;6.07;;;3.90;;
65855;SDS011;52631;42.208;24.656;2023-06-10T08:34:45;5.25;;;3.63;;
65855;SDS011;52631;42.208;24.656;2023-06-10T08:37:11;8.80;;;4.45;;
65855;SDS011;52631;42.208;24.656;2023-06-10T08:39:36;8.38;;;4.55;;
65855;SDS011;52631;42.208;24.656;2023-06-10T08:42:15;6.85;;;3.63;;
65855;SDS011;52631;42.208;24.656;2023-06-10T08:44:44;6.10;;;4.00;;
65855;SDS011;52631;42.208;24.656;2023-06-10T08:47:13;5.93;;;3.95;;
65855;SDS011;52631;42.208;24.656;2023-06-10T08:49:42;8.52;;;4.15;;
65855;SDS011;52631;42.208;24.656;2023-06-10T08:52:19;10.40;;;4.25;;
65855;SDS011;52631;42.208;24.656;2023-06-10T08:55:10;8.93;;;3.97;;
65855;SDS011;52631;42.208;24.656;2023-06-10T08:57:33;6.40;;;4.10;;
65855;SDS011;52631;42.208;24.656;2023-06-10T09:00:00;11.63;;;3.95;;
65855;SDS011;52631;42.208;24.656;2023-06-10T09:02:27;17.63;;;4.55;;
65855;SDS011;52631;42.208;24.656;2023-06-10T09:04:52;8.40;;;4.13;;
65855;SDS011;52631;42.208;24.656;2023-06-10T09:07:19;7.75;;;4.20;;
65855;SDS011;52631;42.208;24.656;2023-06-10T09:09:45;6.82;;;4.25;;
65855;SDS011;52631;42.208;24.656;2023-06-10T09:12:12;9.45;;;3.92;;
65855;SDS011;52631;42.208;24.656;2023-06-10T09:14:38;6.13;;;3.85;;
65855;SDS011;52631;42.208;24.656;2023-06-10T09:17:04;8.57;;;4.18;;
65855;SDS011;52631;42.208;24.656;2023-06-10T09:19:30;9.30;;;4.35;;
65855;SDS011;52631;42.208;24.656;2023-06-10T09:21:56;5.13;;;3.63;;
65855;SDS011;52631;42.208;24.656;2023-06-10T09:24:22;6.85;;;3.75;;
65855;SDS011;52631;42.208;24.656;2023-06-10T09:26:48;6.95;;;3.67;;
65855;SDS011;52631;42.208;24.656;2023-06-10T09:29:15;6.47;;;3.60;;
65855;SDS011;52631;42.208;24.656;2023-06-10T09:31:41;6.85;;;3.70;;
65855;SDS011;52631;42.208;24.656;2023-06-10T09:34:12;8.20;;;3.42;;
65855;SDS011;52631;42.208;24.656;2023-06-10T09:36:40;6.68;;;3.83;;
65855;SDS011;52631;42.208;24.656;2023-06-10T09:39:13;7.07;;;3.55;;
65855;SDS011;52631;42.208;24.656;2023-06-10T09:41:42;12.70;;;5.10;;
65855;SDS011;52631;42.208;24.656;2023-06-10T09:44:12;7.95;;;4.75;;
65855;SDS011;52631;42.208;24.656;2023-06-10T09:46:39;10.85;;;6.60;;
65855;SDS011;52631;42.208;24.656;2023-06-10T09:49:05;7.68;;;3.85;;
65855;SDS011;52631;42.208;24.656;2023-06-10T09:51:30;5.95;;;3.83;;
65855;SDS011;52631;42.208;24.656;2023-06-10T09:53:56;6.97;;;4.10;;
65855;SDS011;52631;42.208;24.656;2023-06-10T09:56:21;5.43;;;3.90;;
65855;SDS011;52631;42.208;24.656;2023-06-10T09:58:58;6.10;;;4.00;;
65855;SDS011;52631;42.208;24.656;2023-06-10T10:01:24;7.30;;;3.97;;
65855;SDS011;52631;42.208;24.656;2023-06-10T10:03:50;6.45;;;3.83;;
65855;SDS011;52631;42.208;24.656;2023-06-10T10:06:16;6.97;;;4.28;;
65855;SDS011;52631;42.208;24.656;2023-06-10T10:08:44;12.05;;;4.10;;
65855;SDS011;52631;42.208;24.656;2023-06-10T10:11:11;5.82;;;3.78;;
65855;SDS011;52631;42.208;24.656;2023-06-10T10:13:37;6.22;;;4.10;;
65855;SDS011;52631;42.208;24.656;2023-06-10T10:16:09;7.40;;;4.10;;
65855;SDS011;52631;42.208;24.656;2023-06-10T10:18:39;7.45;;;4.13;;
65855;SDS011;52631;42.208;24.656;2023-06-10T10:21:11;8.52;;;3.90;;
65855;SDS011;52631;42.208;24.656;2023-06-10T10:23:40;6.85;;;3.80;;
65855;SDS011;52631;42.208;24.656;2023-06-10T10:26:13;5.85;;;3.63;;
65855;SDS011;52631;42.208;24.656;2023-06-10T10:28:46;7.75;;;3.97;;
65855;SDS011;52631;42.208;24.656;2023-06-10T10:31:18;7.22;;;4.15;;
65855;SDS011;52631;42.208;24.656;2023-06-10T10:33:59;7.25;;;4.55;;
65855;SDS011;52631;42.208;24.656;2023-06-10T10:36:27;6.47;;;3.75;;
65855;SDS011;52631;42.208;24.656;2023-06-10T10:38:53;5.97;;;3.72;;
65855;SDS011;52631;42.208;24.656;2023-06-10T10:41:19;6.20;;;3.58;;
65855;SDS011;52631;42.208;24.656;2023-06-10T10:43:45;23.00;;;4.70;;
65855;SDS011;52631;42.208;24.656;2023-06-10T10:46:12;6.03;;;3.35;;
65855;SDS011;52631;42.208;24.656;2023-06-10T10:48:39;7.10;;;3.72;;
65855;SDS011;52631;42.208;24.656;2023-06-10T10:51:11;4.78;;;3.03;;
65855;SDS011;52631;42.208;24.656;2023-06-10T10:53:37;6.13;;;3.60;;
65855;SDS011;52631;42.208;24.656;2023-06-10T10:58:30;5.15;;;3.58;;
65855;SDS011;52631;42.208;24.656;2023-06-10T11:00:57;10.25;;;3.65;;
65855;SDS011;52631;42.208;24.656;2023-06-10T11:03:24;6.65;;;3.10;;
65855;SDS011;52631;42.208;24.656;2023-06-10T11:05:56;6.32;;;2.75;;
65855;SDS011;52631;42.208;24.656;2023-06-10T11:10:57;6.82;;;3.10;;
65855;SDS011;52631;42.208;24.656;2023-06-10T11:13:22;6.13;;;2.95;;
65855;SDS011;52631;42.208;24.656;2023-06-10T11:15:48;6.70;;;2.88;;
65855;SDS011;52631;42.208;24.656;2023-06-10T11:18:25;5.25;;;2.78;;
65855;SDS011;52631;42.208;24.656;2023-06-10T11:21:01;5.78;;;2.70;;
65855;SDS011;52631;42.208;24.656;2023-06-10T11:26:15;6.20;;;2.75;;
65855;SDS011;52631;42.208;24.656;2023-06-10T11:31:20;4.97;;;2.42;;
65855;SDS011;52631;42.208;24.656;2023-06-10T11:33:53;5.47;;;2.90;;
65855;SDS011;52631;42.208;24.656;2023-06-10T11:36:23;5.63;;;3.30;;
65855;SDS011;52631;42.208;24.656;2023-06-10T11:38:49;4.85;;;2.80;;
65855;SDS011;52631;42.208;24.656;2023-06-10T11:41:15;5.18;;;2.60;;
65855;SDS011;52631;42.208;24.656;2023-06-10T11:43:43;5.00;;;2.80;;
65855;SDS011;52631;42.208;24.656;2023-06-10T11:46:09;5.20;;;3.00;;
65855;SDS011;52631;42.208;24.656;2023-06-10T11:48:35;5.30;;;3.15;;
65855;SDS011;52631;42.208;24.656;2023-06-10T11:51:00;5.65;;;2.83;;
65855;SDS011;52631;42.208;24.656;2023-06-10T11:53:26;5.20;;;2.80;;
65855;SDS011;52631;42.208;24.656;2023-06-10T11:55:53;7.70;;;3.30;;
65855;SDS011;52631;42.208;24.656;2023-06-10T11:58:22;5.07;;;3.13;;
65855;SDS011;52631;42.208;24.656;2023-06-10T12:00:48;5.53;;;2.90;;
65855;SDS011;52631;42.208;24.656;2023-06-10T12:03:18;7.38;;;3.22;;
65855;SDS011;52631;42.208;24.656;2023-06-10T12:06:00;5.70;;;3.22;;
65855;SDS011;52631;42.208;24.656;2023-06-10T12:08:27;10.80;;;3.60;;
65855;SDS011;52631;42.208;24.656;2023-06-10T12:10:53;6.88;;;3.38;;
65855;SDS011;52631;42.208;24.656;2023-06-10T12:13:19;6.32;;;3.53;;
65855;SDS011;52631;42.208;24.656;2023-06-10T12:15:44;6.47;;;3.70;;
65855;SDS011;52631;42.208;24.656;2023-06-10T12:18:20;6.68;;;3.80;;
65855;SDS011;52631;42.208;24.656;2023-06-10T12:20:46;6.50;;;3.75;;
65855;SDS011;52631;42.208;24.656;2023-06-10T12:23:13;11.05;;;3.75;;
65855;SDS011;52631;42.208;24.656;2023-06-10T12:25:39;7.22;;;3.75;;
65855;SDS011;52631;42.208;24.656;2023-06-10T12:28:05;4.55;;;3.10;;
65855;SDS011;52631;42.208;24.656;2023-06-10T12:30:31;7.30;;;4.25;;
65855;SDS011;52631;42.208;24.656;2023-06-10T12:32:57;5.22;;;3.50;;
65855;SDS011;52631;42.208;24.656;2023-06-10T12:35:23;5.82;;;3.70;;
65855;SDS011;52631;42.208;24.656;2023-06-10T12:37:56;5.97;;;3.42;;
65855;SDS011;52631;42.208;24.656;2023-06-10T12:40:32;8.48;;;3.83;;
65855;SDS011;52631;42.208;24.656;2023-06-10T12:42:59;5.75;;;3.60;;
65855;SDS011;52631;42.208;24.656;2023-06-10T12:45:28;5.40;;;3.38;;
65855;SDS011;52631;42.208;24.656;2023-06-10T12:48:07;5.03;;;3.33;;
65855;SDS011;52631;42.208;24.656;2023-06-10T12:50:40;6.78;;;4.07;;
65855;SDS011;52631;42.208;24.656;2023-06-10T12:53:06;7.43;;;4.00;;
65855;SDS011;52631;42.208;24.656;2023-06-10T12:55:32;6.43;;;4.10;;
65855;SDS011;52631;42.208;24.656;2023-06-10T12:57:59;6.53;;;4.50;;
65855;SDS011;52631;42.208;24.656;2023-06-10T13:00:25;8.15;;;4.32;;
65855;SDS011;52631;42.208;24.656;2023-06-10T13:02:51;6.55;;;3.85;;
65855;SDS011;52631;42.208;24.656;2023-06-10T13:05:18;7.32;;;4.13;;
65855;SDS011;52631;42.208;24.656;2023-06-10T13:07:45;7.15;;;3.92;;
65855;SDS011;52631;42.208;24.656;2023-06-10T13:10:10;5.93;;;3.90;;
65855;SDS011;52631;42.208;24.656;2023-06-10T13:12:36;10.82;;;3.97;;
65855;SDS011;52631;42.208;24.656;2023-06-10T13:15:02;6.70;;;3.70;;
65855;SDS011;52631;42.208;24.656;2023-06-10T13:17:28;6.32;;;3.42;;
65855;SDS011;52631;42.208;24.656;2023-06-10T13:19:54;4.75;;;3.60;;
65855;SDS011;52631;42.208;24.656;2023-06-10T13:22:20;6.25;;;3.80;;
65855;SDS011;52631;42.208;24.656;2023-06-10T13:24:46;10.40;;;3.83;;
65855;SDS011;52631;42.208;24.656;2023-06-10T13:27:12;7.05;;;3.22;;
65855;SDS011;52631;42.208;24.656;2023-06-10T13:29:41;9.25;;;4.07;;
65855;SDS011;52631;42.208;24.656;2023-06-10T13:32:06;5.57;;;3.40;;
65855;SDS011;52631;42.208;24.656;2023-06-10T13:34:32;7.22;;;3.78;;
65855;SDS011;52631;42.208;24.656;2023-06-10T13:36:58;5.82;;;3.75;;
65855;SDS011;52631;42.208;24.656;2023-06-10T13:39:24;8.00;;;3.95;;
65855;SDS011;52631;42.208;24.656;2023-06-10T13:41:49;7.05;;;3.42;;
65855;SDS011;52631;42.208;24.656;2023-06-10T13:44:16;6.07;;;3.60;;
65855;SDS011;52631;42.208;24.656;2023-06-10T13:46:41;5.20;;;3.50;;
65855;SDS011;52631;42.208;24.656;2023-06-10T13:49:06;4.90;;;3.33;;
65855;SDS011;52631;42.208;24.656;2023-06-10T13:51:32;9.75;;;3.60;;
65855;SDS011;52631;42.208;24.656;2023-06-10T13:53:57;5.95;;;3.58;;
65855;SDS011;52631;42.208;24.656;2023-06-10T13:56:23;6.18;;;3.90;;
65855;SDS011;52631;42.208;24.656;2023-06-10T13:58:48;6.95;;;3.20;;
65855;SDS011;52631;42.208;24.656;2023-06-10T14:01:14;11.35;;;4.40;;
65855;SDS011;52631;42.208;24.656;2023-06-10T14:03:40;6.85;;;4.43;;
65855;SDS011;52631;42.208;24.656;2023-06-10T14:06:05;7.55;;;4.30;;
65855;SDS011;52631;42.208;24.656;2023-06-10T14:08:30;5.40;;;3.72;;
65855;SDS011;52631;42.208;24.656;2023-06-10T14:10:56;6.28;;;4.03;;
65855;SDS011;52631;42.208;24.656;2023-06-10T14:13:21;6.82;;;3.95;;
65855;SDS011;52631;42.208;24.656;2023-06-10T14:15:47;6.28;;;3.85;;
65855;SDS011;52631;42.208;24.656;2023-06-10T14:18:12;5.93;;;3.70;;
65855;SDS011;52631;42.208;24.656;2023-06-10T14:20:38;6.10;;;4.07;;
65855;SDS011;52631;42.208;24.656;2023-06-10T14:23:03;9.70;;;4.03;;
65855;SDS011;52631;42.208;24.656;2023-06-10T14:25:29;5.78;;;3.95;;
65855;SDS011;52631;42.208;24.656;2023-06-10T14:27:55;5.95;;;3.53;;
65855;SDS011;52631;42.208;24.656;2023-06-10T14:30:20;5.30;;;3.40;;
65855;SDS011;52631;42.208;24.656;2023-06-10T14:32:45;6.97;;;3.72;;
65855;SDS011;52631;42.208;24.656;2023-06-10T14:35:11;5.85;;;3.58;;
65855;SDS011;52631;42.208;24.656;2023-06-10T14:37:37;12.85;;;3.95;;
65855;SDS011;52631;42.208;24.656;2023-06-10T14:40:03;6.10;;;3.60;;